首页
METAR-TAF:

METAR-TAF

机场 :

迪拜国际机场

杜拜, 阿拉伯联合酋长国

纬度: 25-15-10N, 经度: 055-21-52E, 海拔: 8米

当前天气观测

该预报发布于57分钟前的01:00 UTC
风速6节,风向西南
温度 15°C
湿度 77%
气压 1016 hPa
能见度10公里或以上
1500米以下无云,无积雨云

METAR: OMDB 230100Z 22006KT CAVOK 15/11 Q1016 NOSIG

时间: 05:57 (01:57 UTC)

预报

该预报发布于3小时和6分钟前的22:51 UTC
预报有效从23日的 00点(UTC)到 24日的 06点(UTC)
风速7节,风向
能见度10公里或以上
少量云层高于3000英尺
成为
从 23日的 06点(UTC)到 23日的 08点(UTC)
风速10节,风向西转西北
成为
从 23日的 15点(UTC)到 23日的 17点(UTC)
风速5节,风向东转东南
几率 30%
从 24日的 01点(UTC)到 24日的 04点(UTC)
能見度: 4000

TAF: OMDB 222251Z 2300/2406 18007KT 9999 FEW030 BECMG 2306/2308 29010KT BECMG 2315/2317 12005KT PROB30 2401/2404 4000 HZ

超过4000个机场的气象观测和天气预报(METAR&TAF报告)。

可查询的气象台以黄色和红色小点在地图上表示。

将鼠标移到小点上方,可查看气象台名称。

然后点击查看天气观测和预报。

如需切换地图:点击带黑十字的绿色按钮放大地图;点击带横线的绿色按钮缩小地图;或者点击绿色箭头查看邻近地区的地图。


METAR-TAF: